createdAt,value
2019-03-11T00:10:26.871Z,93182.05
2019-03-11T00:25:29.620Z,93166.70
2019-03-11T00:40:33.384Z,93151.25
2019-03-11T00:55:35.939Z,93155.13
2019-03-11T01:10:38.650Z,93156.31
2019-03-11T01:25:41.469Z,93148.13
2019-03-11T01:40:44.144Z,93142.95
2019-03-11T01:55:47.679Z,93133.62
2019-03-11T02:10:50.289Z,93144.94
2019-03-11T02:25:53.397Z,93157.30
2019-03-11T02:40:56.777Z,93143.50
2019-03-11T02:55:59.341Z,93163.19
2019-03-11T03:11:05.272Z,93173.83
2019-03-11T03:26:07.846Z,93179.66
2019-03-11T03:41:10.480Z,93207.75
2019-03-11T03:56:13.224Z,93238.11
2019-03-11T04:11:16.530Z,93256.01
2019-03-11T04:26:19.188Z,93276.94
2019-03-11T04:41:21.810Z,93283.43
2019-03-11T04:56:26.262Z,93289.48
2019-03-11T05:11:29.765Z,93287.64
2019-03-11T05:26:33.998Z,93273.45
2019-03-11T05:41:37.642Z,93266.14
2019-03-11T05:56:40.473Z,93263.20
2019-03-11T06:11:43.027Z,93260.81
2019-03-11T06:26:46.192Z,93282.79
2019-03-11T06:41:49.500Z,93274.32
2019-03-11T06:56:52.082Z,93257.69
2019-03-11T07:11:54.638Z,93236.94
2019-03-11T07:26:57.204Z,93218.29
2019-03-11T07:41:59.753Z,93211.11
2019-03-11T07:57:02.301Z,93199.48
2019-03-11T08:12:05.699Z,93200.67
2019-03-11T08:27:09.804Z,93171.27
2019-03-11T08:42:12.364Z,93148.72
2019-03-11T08:57:14.926Z,93135.82
2019-03-11T09:12:24.290Z,93093.80
2019-03-11T09:27:26.845Z,93081.61
2019-03-11T09:42:29.420Z,93077.31
2019-03-11T09:57:31.964Z,93062.00
2019-03-11T10:12:35.186Z,93062.08
2019-03-11T10:27:38.041Z,93045.77
2019-03-11T10:42:40.594Z,93063.33
2019-03-11T10:57:44.312Z,93054.72
2019-03-11T11:12:47.682Z,93034.14
2019-03-11T11:27:50.571Z,93012.56
2019-03-11T11:42:53.246Z,92981.94
2019-03-11T11:57:55.793Z,92946.52
2019-03-11T12:13:00.692Z,92917.67
2019-03-11T12:28:04.036Z,92899.11
2019-03-11T12:43:07.059Z,92871.30
2019-03-11T12:58:10.005Z,92851.05
2019-03-11T13:13:14.422Z,92836.23
2019-03-11T13:28:16.985Z,92822.95
2019-03-11T13:43:19.551Z,92802.74
2019-03-11T13:58:22.178Z,92780.34
2019-03-11T14:13:25.400Z,92768.94
2019-03-11T14:28:27.968Z,92749.41
2019-03-11T14:43:30.550Z,92761.77
2019-03-11T14:58:34.088Z,92756.71
2019-03-11T15:13:37.464Z,92749.66
2019-03-11T15:28:40.898Z,92764.02
2019-03-11T15:43:43.509Z,92762.77
2019-03-11T15:58:46.185Z,92787.25
2019-03-11T16:13:50.859Z,92778.70
2019-03-11T16:28:53.426Z,92811.63
2019-03-11T16:43:56.108Z,92789.00
2019-03-11T16:59:00.680Z,92796.08
2019-03-11T17:14:03.265Z,92814.98
2019-03-11T17:29:07.064Z,92823.79
2019-03-11T17:44:11.273Z,92809.97
2019-03-11T17:59:13.863Z,92832.95
2019-03-11T18:14:17.299Z,92831.51
2019-03-11T18:29:20.172Z,92835.66
2019-03-11T18:44:22.750Z,92851.77
2019-03-11T18:59:28.390Z,92853.58
2019-03-11T19:14:30.994Z,92854.97
2019-03-11T19:29:33.665Z,92842.73
2019-03-11T19:44:37.762Z,92825.74
2019-03-11T19:59:41.231Z,92827.80
2019-03-11T20:14:44.340Z,92811.70
2019-03-11T20:29:47.644Z,92804.17
2019-03-11T20:44:51.153Z,92814.00
2019-03-11T20:59:53.823Z,92831.66
2019-03-11T21:14:56.483Z,92819.01
2019-03-11T21:30:01.324Z,92847.80
2019-03-11T21:45:05.275Z,92853.56
2019-03-11T22:00:12.360Z,92854.77
2019-03-11T22:15:24.092Z,92863.66
2019-03-11T22:30:27.509Z,92859.99
2019-03-11T22:45:31.549Z,92853.13
2019-03-11T23:00:50.165Z,92865.77
2019-03-11T23:15:52.718Z,92889.40
2019-03-11T23:30:55.758Z,92896.97
2019-03-11T23:45:58.323Z,92897.16
